Time;durP1;ratioP1;P1;durP2;ratioP2;P2;SDS_P1;SDS_P2;PMS_P1;PMS_P2;Temp;Humidity;BMP_temperature;BMP_pressure;BME280_temperature;BME280_humidity;BME280_pressure;Samples;Min_cycle;Max_cycle;Signal;HPM_P1;HPM_P2
2023/06/04 00:02:01;;;;;;;4.95;2.13;;;;;;;;;;5013894;28;20188;-51
2023/06/04 00:04:27;;;;;;;2.58;1.90;;;;;;;;;;5014285;28;20575;-51
2023/06/04 00:06:54;;;;;;;2.80;1.95;;;;;;;;;;5016651;28;20216;-51
2023/06/04 00:09:20;;;;;;;3.03;2.40;;;;;;;;;;5014798;28;20472;-51
2023/06/04 00:11:46;;;;;;;2.20;1.85;;;;;;;;;;5014843;28;20185;-51
2023/06/04 00:14:12;;;;;;;3.70;2.53;;;;;;;;;;5014167;28;20195;-51
2023/06/04 00:16:38;;;;;;;3.63;2.60;;;;;;;;;;5016525;28;20189;-51
2023/06/04 00:19:04;;;;;;;4.60;2.08;;;;;;;;;;5015843;28;20230;-51
2023/06/04 00:21:30;;;;;;;2.13;1.92;;;;;;;;;;5014487;28;20196;-51
2023/06/04 00:23:56;;;;;;;2.40;2.10;;;;;;;;;;5014923;28;20718;-50
2023/06/04 00:26:22;;;;;;;2.63;1.92;;;;;;;;;;5012008;28;20192;-50
2023/06/04 00:28:47;;;;;;;2.17;1.77;;;;;;;;;;5015593;28;20575;-51
2023/06/04 00:31:14;;;;;;;2.70;1.90;;;;;;;;;;5012223;28;20302;-53
2023/06/04 00:33:40;;;;;;;3.38;2.05;;;;;;;;;;5014947;28;20626;-51
2023/06/04 00:36:06;;;;;;;2.13;1.67;;;;;;;;;;5014977;28;20267;-51
2023/06/04 00:38:32;;;;;;;2.17;1.75;;;;;;;;;;5015427;28;20232;-51
2023/06/04 00:40:58;;;;;;;3.05;2.00;;;;;;;;;;5013954;28;20207;-51
2023/06/04 00:43:27;;;;;;;3.58;2.00;;;;;;;;;;5015525;28;20180;-51
2023/06/04 00:45:54;;;;;;;3.42;2.22;;;;;;;;;;5008387;28;20263;-51
2023/06/04 00:48:20;;;;;;;3.03;1.88;;;;;;;;;;5013775;28;20215;-51
2023/06/04 00:50:47;;;;;;;2.65;2.22;;;;;;;;;;5015619;28;20239;-51
2023/06/04 00:53:13;;;;;;;3.42;1.95;;;;;;;;;;5016148;28;20188;-51
2023/06/04 00:55:39;;;;;;;4.72;2.03;;;;;;;;;;5014435;28;20191;-51
2023/06/04 00:58:05;;;;;;;2.60;1.95;;;;;;;;;;5015389;28;20258;-51
2023/06/04 01:00:32;;;;;;;2.38;1.90;;;;;;;;;;5015097;28;20184;-51
2023/06/04 01:03:02;;;;;;;2.55;2.08;;;;;;;;;;5014857;28;20173;-51
2023/06/04 01:05:38;;;;;;;2.20;1.83;;;;;;;;;;5015145;28;20176;-51
2023/06/04 01:08:08;;;;;;;3.28;2.03;;;;;;;;;;5015195;28;20180;-51
2023/06/04 01:10:34;;;;;;;2.10;1.90;;;;;;;;;;5004185;28;20231;-51
2023/06/04 01:13:00;;;;;;;2.72;2.30;;;;;;;;;;5008483;28;20273;-51
2023/06/04 01:15:26;;;;;;;2.53;1.90;;;;;;;;;;5013172;28;20727;-51
2023/06/04 01:18:02;;;;;;;2.90;2.25;;;;;;;;;;5015088;28;20207;-51
2023/06/04 01:20:28;;;;;;;4.35;2.15;;;;;;;;;;5015021;28;20192;-51
2023/06/04 01:22:54;;;;;;;2.47;1.80;;;;;;;;;;5010691;28;20622;-51
2023/06/04 01:25:26;;;;;;;4.00;2.20;;;;;;;;;;5015312;28;20226;-51
2023/06/04 01:27:55;;;;;;;3.47;2.15;;;;;;;;;;5012137;28;20456;-51
2023/06/04 01:30:31;;;;;;;2.92;2.00;;;;;;;;;;5008113;28;20184;-51
2023/06/04 01:32:58;;;;;;;2.42;2.22;;;;;;;;;;5013184;28;20192;-52
2023/06/04 01:35:24;;;;;;;2.42;2.10;;;;;;;;;;5013849;28;20203;-51
2023/06/04 01:37:51;;;;;;;3.20;1.80;;;;;;;;;;5006449;28;20572;-51
2023/06/04 01:40:17;;;;;;;2.10;1.90;;;;;;;;;;5014734;28;20274;-51
2023/06/04 01:42:43;;;;;;;2.28;1.80;;;;;;;;;;5009075;28;20216;-51
2023/06/04 01:45:09;;;;;;;3.55;2.00;;;;;;;;;;5011794;28;20494;-51
2023/06/04 01:47:35;;;;;;;2.28;1.98;;;;;;;;;;5013484;28;20263;-51
2023/06/04 01:50:02;;;;;;;3.63;2.08;;;;;;;;;;5006276;28;20184;-51
2023/06/04 01:52:28;;;;;;;1.88;1.70;;;;;;;;;;5010187;28;20575;-51
2023/06/04 01:54:54;;;;;;;2.72;2.22;;;;;;;;;;5014229;28;20181;-51
2023/06/04 01:57:21;;;;;;;3.70;2.15;;;;;;;;;;5015070;28;20200;-51
2023/06/04 01:59:46;;;;;;;3.17;2.15;;;;;;;;;;5012925;28;20292;-52
2023/06/04 02:02:13;;;;;;;3.13;2.50;;;;;;;;;;5012567;28;20323;-50
2023/06/04 02:04:41;;;;;;;1.95;1.58;;;;;;;;;;5010377;28;20180;-53
2023/06/04 02:07:10;;;;;;;2.03;1.80;;;;;;;;;;5014987;28;20176;-51
2023/06/04 02:09:36;;;;;;;2.80;2.10;;;;;;;;;;5007864;28;20198;-51
2023/06/04 02:12:02;;;;;;;3.65;2.15;;;;;;;;;;5028815;28;20184;-51
2023/06/04 02:14:28;;;;;;;2.78;2.13;;;;;;;;;;5012200;28;20504;-51
2023/06/04 02:16:57;;;;;;;3.65;2.05;;;;;;;;;;5014463;28;20188;-51
2023/06/04 02:19:23;;;;;;;2.50;1.83;;;;;;;;;;5012698;28;20187;-51
2023/06/04 02:21:49;;;;;;;3.03;2.03;;;;;;;;;;5012096;28;20234;-51
2023/06/04 02:24:15;;;;;;;3.13;2.20;;;;;;;;;;5013931;28;20191;-51
2023/06/04 02:26:41;;;;;;;3.08;2.10;;;;;;;;;;5012944;28;20177;-51
2023/06/04 02:29:07;;;;;;;5.22;1.92;;;;;;;;;;5008183;28;20192;-51
2023/06/04 02:31:33;;;;;;;3.97;1.95;;;;;;;;;;5008962;28;20533;-51
2023/06/04 02:33:59;;;;;;;2.78;2.05;;;;;;;;;;5005546;28;20184;-51
2023/06/04 02:36:25;;;;;;;3.08;2.00;;;;;;;;;;5014198;28;20276;-51
2023/06/04 02:38:51;;;;;;;2.20;2.00;;;;;;;;;;5014083;28;20204;-51
2023/06/04 02:41:17;;;;;;;3.58;2.42;;;;;;;;;;5005536;28;20568;-51
2023/06/04 02:43:43;;;;;;;2.10;1.80;;;;;;;;;;5012567;28;20192;-51
2023/06/04 02:46:09;;;;;;;4.05;2.15;;;;;;;;;;5005965;28;20185;-51
2023/06/04 02:48:34;;;;;;;2.58;2.17;;;;;;;;;;5012433;28;20450;-51
2023/06/04 02:51:00;;;;;;;3.28;2.22;;;;;;;;;;5012518;28;20195;-51
2023/06/04 02:53:26;;;;;;;2.63;1.90;;;;;;;;;;5012961;28;20239;-51
2023/06/04 02:55:52;;;;;;;2.70;2.22;;;;;;;;;;5013771;28;20227;-51
2023/06/04 02:58:19;;;;;;;2.15;1.90;;;;;;;;;;5006520;28;20217;-51
2023/06/04 03:00:45;;;;;;;3.15;1.75;;;;;;;;;;5013566;28;20181;-51
2023/06/04 03:03:11;;;;;;;2.65;2.22;;;;;;;;;;5008527;28;20271;-51
2023/06/04 03:05:39;;;;;;;5.28;1.92;;;;;;;;;;5006168;28;20699;-51
2023/06/04 03:08:06;;;;;;;2.47;1.90;;;;;;;;;;5013159;28;20307;-51
2023/06/04 03:10:32;;;;;;;2.15;1.95;;;;;;;;;;5011536;28;20176;-51
2023/06/04 03:12:58;;;;;;;8.38;1.98;;;;;;;;;;5011620;28;20173;-51
2023/06/04 03:15:24;;;;;;;3.45;2.10;;;;;;;;;;5013288;28;20608;-51
2023/06/04 03:17:51;;;;;;;2.15;1.95;;;;;;;;;;5015295;28;20210;-51
2023/06/04 03:20:17;;;;;;;3.53;1.70;;;;;;;;;;5014941;28;20275;-51
2023/06/04 03:22:43;;;;;;;3.28;1.92;;;;;;;;;;5008219;28;20267;-51
2023/06/04 03:25:09;;;;;;;2.05;1.70;;;;;;;;;;5013770;28;20189;-51
2023/06/04 03:27:35;;;;;;;1.65;1.50;;;;;;;;;;5009944;28;20191;-51
2023/06/04 03:30:01;;;;;;;6.70;2.10;;;;;;;;;;5013765;28;20239;-51
2023/06/04 03:32:27;;;;;;;3.72;1.85;;;;;;;;;;5011871;28;20220;-51
2023/06/04 03:34:53;;;;;;;3.72;2.17;;;;;;;;;;5015906;28;20525;-51
2023/06/04 03:37:19;;;;;;;2.58;2.22;;;;;;;;;;5019946;28;20204;-51
2023/06/04 03:39:45;;;;;;;2.17;1.98;;;;;;;;;;5013206;28;20202;-51
2023/06/04 03:42:11;;;;;;;2.13;1.90;;;;;;;;;;5012098;28;20174;-51
2023/06/04 03:44:37;;;;;;;1.80;1.70;;;;;;;;;;5015152;28;20456;-51
2023/06/04 03:47:03;;;;;;;3.47;1.92;;;;;;;;;;5016293;28;20200;-51
2023/06/04 03:49:28;;;;;;;2.15;1.85;;;;;;;;;;5015894;28;20270;-51
2023/06/04 03:51:55;;;;;;;2.25;2.05;;;;;;;;;;5011150;28;20187;-51
2023/06/04 03:54:21;;;;;;;2.35;2.00;;;;;;;;;;5010585;28;20180;-51
2023/06/04 03:56:47;;;;;;;2.90;1.90;;;;;;;;;;5017336;28;20520;-51
2023/06/04 03:59:13;;;;;;;2.10;1.90;;;;;;;;;;5016420;28;20272;-51
2023/06/04 04:01:39;;;;;;;1.95;1.58;;;;;;;;;;5009570;28;20181;-51
2023/06/04 04:04:05;;;;;;;2.83;2.10;;;;;;;;;;5025790;28;20187;-51
2023/06/04 04:06:31;;;;;;;2.40;1.80;;;;;;;;;;5016758;28;20552;-51
2023/06/04 04:08:58;;;;;;;2.45;1.90;;;;;;;;;;5012017;28;20268;-51
2023/06/04 04:11:24;;;;;;;1.65;1.55;;;;;;;;;;5007491;28;20619;-51
2023/06/04 04:13:49;;;;;;;2.97;2.00;;;;;;;;;;5014563;28;20185;-51
2023/06/04 04:16:15;;;;;;;3.13;1.90;;;;;;;;;;5016103;28;20181;-51
2023/06/04 04:18:45;;;;;;;1.98;1.75;;;;;;;;;;5010156;28;20203;-51
2023/06/04 04:21:11;;;;;;;3.35;2.10;;;;;;;;;;5010556;28;20195;-51
2023/06/04 04:23:40;;;;;;;3.13;2.10;;;;;;;;;;5012262;28;20185;-51
2023/06/04 04:26:06;;;;;;;3.75;1.88;;;;;;;;;;5015186;28;20440;-51
2023/06/04 04:28:34;;;;;;;3.35;2.15;;;;;;;;;;5012637;28;20195;-51
2023/06/04 04:31:02;;;;;;;3.30;2.13;;;;;;;;;;5015777;28;20191;-51
2023/06/04 04:33:32;;;;;;;11.02;2.25;;;;;;;;;;5015500;28;20188;-51
2023/06/04 04:35:59;;;;;;;5.00;2.10;;;;;;;;;;5015435;28;20177;-51
2023/06/04 04:38:25;;;;;;;5.03;2.55;;;;;;;;;;5011641;28;20223;-51
2023/06/04 04:40:52;;;;;;;3.55;2.13;;;;;;;;;;5016007;28;20223;-51
2023/06/04 04:43:39;;;;;;;3.47;2.08;;;;;;;;;;5015234;28;20267;-51
2023/06/04 04:46:05;;;;;;;4.50;2.30;;;;;;;;;;5016083;28;20555;-50
2023/06/04 04:48:32;;;;;;;2.30;1.77;;;;;;;;;;5014943;28;20196;-50
2023/06/04 04:50:58;;;;;;;2.28;1.88;;;;;;;;;;5015488;28;20205;-50
2023/06/04 04:53:24;;;;;;;3.58;2.30;;;;;;;;;;5015408;28;20212;-50
2023/06/04 04:55:50;;;;;;;3.25;1.80;;;;;;;;;;5015577;28;20196;-50
2023/06/04 04:58:16;;;;;;;2.08;1.67;;;;;;;;;;5011725;28;20208;-51
2023/06/04 05:00:42;;;;;;;5.60;2.00;;;;;;;;;;5011149;28;20267;-50
2023/06/04 05:03:08;;;;;;;2.15;1.77;;;;;;;;;;5015500;28;20173;-50
2023/06/04 05:05:34;;;;;;;1.95;1.58;;;;;;;;;;5015433;28;20476;-50
2023/06/04 05:08:00;;;;;;;2.38;1.70;;;;;;;;;;5008958;28;20234;-50
2023/06/04 05:10:26;;;;;;;2.13;1.88;;;;;;;;;;5012115;28;20188;-51
2023/06/04 05:12:52;;;;;;;2.03;1.63;;;;;;;;;;5015428;28;20204;-50
2023/06/04 05:15:19;;;;;;;2.35;1.80;;;;;;;;;;5015805;28;20642;-50
2023/06/04 05:17:46;;;;;;;3.22;1.70;;;;;;;;;;5013125;28;20204;-50
2023/06/04 05:20:12;;;;;;;1.80;1.50;;;;;;;;;;5009770;28;20184;-50
2023/06/04 05:22:38;;;;;;;2.00;1.58;;;;;;;;;;5025325;28;20183;-50
2023/06/04 05:25:05;;;;;;;2.38;1.65;;;;;;;;;;5011069;28;20181;-50
2023/06/04 05:27:31;;;;;;;2.92;1.80;;;;;;;;;;5013959;28;20203;-50
2023/06/04 05:29:58;;;;;;;3.95;1.90;;;;;;;;;;5012506;28;20180;-50
2023/06/04 05:32:23;;;;;;;1.98;1.63;;;;;;;;;;5014566;28;20188;-49
2023/06/04 05:34:49;;;;;;;3.35;1.50;;;;;;;;;;5009370;28;20471;-50
2023/06/04 05:37:19;;;;;;;2.63;1.75;;;;;;;;;;5013515;28;20215;-50
2023/06/04 05:39:45;;;;;;;2.50;1.42;;;;;;;;;;5011538;28;20283;-50
2023/06/04 05:42:11;;;;;;;1.85;1.60;;;;;;;;;;5013347;28;20656;-50
2023/06/04 05:44:37;;;;;;;2.22;1.30;;;;;;;;;;5012525;28;20188;-50
2023/06/04 05:47:03;;;;;;;3.97;1.63;;;;;;;;;;5020752;28;20184;-50
2023/06/04 05:49:29;;;;;;;2.03;1.48;;;;;;;;;;5015092;28;20195;-50
2023/06/04 05:51:55;;;;;;;2.75;1.50;;;;;;;;;;5012941;28;20177;-50
2023/06/04 05:54:21;;;;;;;1.73;1.40;;;;;;;;;;5011292;28;20188;-50
2023/06/04 05:56:46;;;;;;;1.77;1.50;;;;;;;;;;5013271;28;20181;-50
2023/06/04 05:59:12;;;;;;;2.08;1.40;;;;;;;;;;5012610;28;20185;-50
2023/06/04 06:01:38;;;;;;;1.63;1.40;;;;;;;;;;5013328;28;20177;-50
2023/06/04 06:04:05;;;;;;;3.25;1.52;;;;;;;;;;5012458;28;20188;-50
2023/06/04 06:06:31;;;;;;;4.13;2.10;;;;;;;;;;5013236;28;20184;-50
2023/06/04 06:08:58;;;;;;;3.40;2.22;;;;;;;;;;5012377;28;20246;-50
2023/06/04 06:11:26;;;;;;;5.13;3.10;;;;;;;;;;5012517;28;20188;-50
2023/06/04 06:13:52;;;;;;;5.10;2.88;;;;;;;;;;5013448;28;20185;-51
2023/06/04 06:16:18;;;;;;;3.42;2.42;;;;;;;;;;5013141;28;20198;-50
2023/06/04 06:18:44;;;;;;;3.70;2.58;;;;;;;;;;5012011;28;20599;-50
2023/06/04 06:21:10;;;;;;;2.60;2.10;;;;;;;;;;5010319;28;20192;-50
2023/06/04 06:23:36;;;;;;;3.65;1.92;;;;;;;;;;5007606;28;20188;-50
2023/06/04 06:26:03;;;;;;;3.30;2.17;;;;;;;;;;5005382;28;20584;-50
2023/06/04 06:28:29;;;;;;;2.45;1.90;;;;;;;;;;5005590;28;20503;-50
2023/06/04 06:30:55;;;;;;;3.17;2.08;;;;;;;;;;5011148;28;20180;-52
2023/06/04 06:33:23;;;;;;;3.38;1.90;;;;;;;;;;5014449;28;20211;-50
2023/06/04 06:35:49;;;;;;;2.17;1.80;;;;;;;;;;5009322;28;20172;-50
2023/06/04 06:38:15;;;;;;;5.03;1.80;;;;;;;;;;5008718;28;20192;-50
2023/06/04 06:40:41;;;;;;;2.63;1.65;;;;;;;;;;5006848;28;21026;-50
2023/06/04 06:43:07;;;;;;;3.63;1.70;;;;;;;;;;5009166;28;20180;-51
2023/06/04 06:45:33;;;;;;;5.00;1.90;;;;;;;;;;5013786;28;20509;-50
2023/06/04 06:47:59;;;;;;;3.67;1.73;;;;;;;;;;5009333;28;20185;-49
2023/06/04 06:50:24;;;;;;;4.57;2.00;;;;;;;;;;5011256;28;20192;-51
2023/06/04 06:52:50;;;;;;;5.47;1.80;;;;;;;;;;5014475;28;20195;-50
2023/06/04 06:55:16;;;;;;;5.85;1.50;;;;;;;;;;5010256;28;20315;-49
2023/06/04 06:57:42;;;;;;;2.13;1.50;;;;;;;;;;5013046;28;20204;-56
2023/06/04 07:00:09;;;;;;;2.75;1.60;;;;;;;;;;5012197;28;20866;-55
2023/06/04 07:02:35;;;;;;;5.63;1.60;;;;;;;;;;5028265;28;20615;-53
2023/06/04 07:05:01;;;;;;;2.83;1.58;;;;;;;;;;5008721;28;20195;-49
2023/06/04 07:07:27;;;;;;;3.13;1.67;;;;;;;;;;5010495;28;20184;-49
2023/06/04 07:09:53;;;;;;;3.42;1.48;;;;;;;;;;5017550;28;20180;-49
2023/06/04 07:12:19;;;;;;;2.35;1.50;;;;;;;;;;5014814;28;20191;-49
2023/06/04 07:14:45;;;;;;;5.28;1.30;;;;;;;;;;5014753;28;20188;-60
2023/06/04 07:17:11;;;;;;;3.05;1.40;;;;;;;;;;5016360;28;20255;-50
2023/06/04 07:19:37;;;;;;;2.00;1.35;;;;;;;;;;5016875;28;20495;-51
2023/06/04 07:22:03;;;;;;;3.90;1.45;;;;;;;;;;5012179;28;20251;-50
2023/06/04 07:24:28;;;;;;;1.13;1.05;;;;;;;;;;5009433;28;20512;-51
2023/06/04 07:26:54;;;;;;;3.22;1.30;;;;;;;;;;5015638;28;20193;-52
2023/06/04 07:29:20;;;;;;;3.05;1.40;;;;;;;;;;5011093;28;20181;-54
2023/06/04 07:31:46;;;;;;;6.93;1.52;;;;;;;;;;5013270;28;20215;-52
2023/06/04 07:34:12;;;;;;;4.10;1.30;;;;;;;;;;5011155;28;20177;-51
2023/06/04 07:36:38;;;;;;;3.03;1.02;;;;;;;;;;5007412;28;20554;-50
2023/06/04 07:39:04;;;;;;;4.90;1.25;;;;;;;;;;5012216;28;20212;-51
2023/06/04 07:41:30;;;;;;;3.10;1.23;;;;;;;;;;5011399;28;20223;-58
2023/06/04 07:43:56;;;;;;;2.90;1.10;;;;;;;;;;5014948;28;20181;-50
2023/06/04 07:46:22;;;;;;;3.90;1.20;;;;;;;;;;5011952;28;21064;-52
2023/06/04 07:48:48;;;;;;;7.93;1.10;;;;;;;;;;5016205;28;20279;-52
2023/06/04 07:51:14;;;;;;;4.15;1.20;;;;;;;;;;5005543;28;20196;-52
2023/06/04 07:53:42;;;;;;;3.10;1.10;;;;;;;;;;5015208;28;20185;-52
2023/06/04 07:56:08;;;;;;;2.00;1.20;;;;;;;;;;5016068;28;20588;-52
2023/06/04 07:58:34;;;;;;;2.53;1.30;;;;;;;;;;5015735;28;20236;-52
2023/06/04 08:01:00;;;;;;;3.13;1.10;;;;;;;;;;5008192;28;20219;-51
2023/06/04 08:03:26;;;;;;;3.75;1.20;;;;;;;;;;5009824;28;20557;-53
2023/06/04 08:05:52;;;;;;;2.10;1.02;;;;;;;;;;5009118;28;20188;-53
2023/06/04 08:08:18;;;;;;;1.20;1.08;;;;;;;;;;5007348;28;20267;-51
2023/06/04 08:10:44;;;;;;;4.35;1.30;;;;;;;;;;5011310;28;20189;-50
2023/06/04 08:13:10;;;;;;;2.35;1.25;;;;;;;;;;5011567;28;20238;-50
2023/06/04 08:15:36;;;;;;;4.40;1.58;;;;;;;;;;5008839;28;20188;-51
2023/06/04 08:18:02;;;;;;;2.33;1.10;;;;;;;;;;5008645;28;20205;-51
2023/06/04 08:20:28;;;;;;;5.10;1.17;;;;;;;;;;5010275;28;20830;-52
2023/06/04 08:22:53;;;;;;;1.58;1.20;;;;;;;;;;5007748;28;20191;-52
2023/06/04 08:25:20;;;;;;;4.18;1.23;;;;;;;;;;5007271;28;20188;-51
2023/06/04 08:27:46;;;;;;;2.42;1.23;;;;;;;;;;5007928;28;20189;-52
2023/06/04 08:30:12;;;;;;;2.28;1.10;;;;;;;;;;5013451;28;20207;-52
2023/06/04 08:32:38;;;;;;;1.92;1.10;;;;;;;;;;5010921;28;20563;-51
2023/06/04 08:35:04;;;;;;;1.65;1.05;;;;;;;;;;5010777;28;20319;-52
2023/06/04 08:37:30;;;;;;;2.78;1.40;;;;;;;;;;5016931;28;20204;-52
2023/06/04 08:39:56;;;;;;;2.50;1.13;;;;;;;;;;5012082;28;20465;-52
2023/06/04 08:42:26;;;;;;;3.35;1.25;;;;;;;;;;5010394;28;20188;-52
2023/06/04 08:44:52;;;;;;;2.95;1.10;;;;;;;;;;5008190;28;20181;-52
2023/06/04 08:47:19;;;;;;;2.60;1.20;;;;;;;;;;5012913;28;20647;-52
2023/06/04 08:49:47;;;;;;;1.67;1.30;;;;;;;;;;5014839;28;20188;-52
2023/06/04 08:52:13;;;;;;;1.58;1.10;;;;;;;;;;5015140;28;20181;-52
2023/06/04 08:54:39;;;;;;;2.25;1.20;;;;;;;;;;5014466;28;20187;-52
2023/06/04 08:57:05;;;;;;;2.05;1.30;;;;;;;;;;5013808;28;20180;-52
2023/06/04 08:59:31;;;;;;;2.72;1.20;;;;;;;;;;5015185;28;20197;-52
2023/06/04 09:01:57;;;;;;;2.65;1.15;;;;;;;;;;5006456;28;20189;-52
2023/06/04 09:04:24;;;;;;;1.27;1.00;;;;;;;;;;5009997;28;20185;-52
2023/06/04 09:06:50;;;;;;;2.97;1.17;;;;;;;;;;5011688;28;20181;-52
2023/06/04 09:09:17;;;;;;;2.80;1.48;;;;;;;;;;5015321;28;20192;-52
2023/06/04 09:11:53;;;;;;;1.48;1.13;;;;;;;;;;5009664;28;20177;-52
2023/06/04 09:14:19;;;;;;;1.77;1.48;;;;;;;;;;5013417;28;20254;-52
2023/06/04 09:16:47;;;;;;;1.83;0.95;;;;;;;;;;5014949;28;20207;-52
2023/06/04 09:19:13;;;;;;;1.70;1.27;;;;;;;;;;5030133;28;20295;-52
2023/06/04 09:21:58;;;;;;;2.63;1.40;;;;;;;;;;5013864;28;20188;-52
2023/06/04 09:24:25;;;;;;;1.80;1.02;;;;;;;;;;5012024;28;20519;-52
2023/06/04 09:26:51;;;;;;;1.50;0.95;;;;;;;;;;5014880;28;20182;-52
2023/06/04 09:29:19;;;;;;;2.35;1.40;;;;;;;;;;5014117;28;20188;-53
2023/06/04 09:31:46;;;;;;;2.22;1.10;;;;;;;;;;5011339;28;20180;-52
2023/06/04 09:34:12;;;;;;;2.17;1.40;;;;;;;;;;5009823;28;20200;-53
2023/06/04 09:36:38;;;;;;;1.65;0.98;;;;;;;;;;5012290;28;20220;-52
2023/06/04 09:39:15;;;;;;;1.58;1.30;;;;;;;;;;5014858;28;20204;-52
2023/06/04 09:41:40;;;;;;;1.42;1.15;;;;;;;;;;5013527;28;20184;-52
2023/06/04 09:44:10;;;;;;;1.58;1.13;;;;;;;;;;5014213;28;20172;-52
2023/06/04 09:46:36;;;;;;;1.05;0.98;;;;;;;;;;5012494;28;20468;-52
2023/06/04 09:49:03;;;;;;;1.92;1.17;;;;;;;;;;5015151;28;20176;-52
2023/06/04 09:51:29;;;;;;;3.45;1.30;;;;;;;;;;5014233;28;20184;-52
2023/06/04 09:53:56;;;;;;;1.85;1.08;;;;;;;;;;5014181;28;20184;-52
2023/06/04 09:56:22;;;;;;;2.95;1.38;;;;;;;;;;5010335;28;20184;-52
2023/06/04 09:58:49;;;;;;;2.25;0.90;;;;;;;;;;5010789;28;20211;-52
2023/06/04 10:01:16;;;;;;;3.85;1.20;;;;;;;;;;5002479;28;20183;-52
2023/06/04 10:03:47;;;;;;;1.45;1.10;;;;;;;;;;5013220;28;20191;-53
2023/06/04 10:06:14;;;;;;;1.85;1.02;;;;;;;;;;5010879;28;20176;-52
2023/06/04 10:08:42;;;;;;;2.95;1.20;;;;;;;;;;5022099;28;20458;-52
2023/06/04 10:11:09;;;;;;;1.52;1.02;;;;;;;;;;5013713;28;20176;-52
2023/06/04 10:13:44;;;;;;;1.52;1.13;;;;;;;;;;5009145;28;20275;-52
2023/06/04 10:16:11;;;;;;;1.60;1.00;;;;;;;;;;5008798;28;20225;-52
2023/06/04 10:18:37;;;;;;;1.60;1.50;;;;;;;;;;5002278;28;20286;-52
2023/06/04 10:21:04;;;;;;;1.38;1.08;;;;;;;;;;5013273;28;20199;-52
2023/06/04 10:23:30;;;;;;;1.55;1.15;;;;;;;;;;5008801;28;20209;-52
2023/06/04 10:25:56;;;;;;;2.05;1.00;;;;;;;;;;5010306;28;20254;-52
2023/06/04 10:28:23;;;;;;;2.90;1.08;;;;;;;;;;5010859;28;20242;-52
2023/06/04 10:30:50;;;;;;;1.17;1.05;;;;;;;;;;5008824;28;20211;-52
2023/06/04 10:33:17;;;;;;;1.52;1.10;;;;;;;;;;5004784;28;20200;-52
2023/06/04 10:35:43;;;;;;;1.23;1.10;;;;;;;;;;5009763;28;20192;-52
2023/06/04 10:38:10;;;;;;;1.42;1.17;;;;;;;;;;5010041;28;20303;-52
2023/06/04 10:40:36;;;;;;;1.25;0.90;;;;;;;;;;5010963;28;20571;-52
2023/06/04 10:43:09;;;;;;;2.08;1.08;;;;;;;;;;5014604;28;20180;-52
2023/06/04 10:45:35;;;;;;;1.33;1.00;;;;;;;;;;5019920;28;20183;-52
2023/06/04 10:48:02;;;;;;;1.38;1.27;;;;;;;;;;5018990;28;20176;-53
2023/06/04 10:50:28;;;;;;;1.25;1.00;;;;;;;;;;5020088;28;20219;-52
2023/06/04 10:52:57;;;;;;;1.13;1.02;;;;;;;;;;5018399;28;20242;-52
2023/06/04 10:55:23;;;;;;;4.63;1.17;;;;;;;;;;5017890;28;20188;-52
2023/06/04 10:57:52;;;;;;;2.22;1.05;;;;;;;;;;5020494;28;20604;-53
2023/06/04 11:00:19;;;;;;;1.13;1.00;;;;;;;;;;5016475;28;20194;-52
2023/06/04 11:02:57;;;;;;;1.63;1.08;;;;;;;;;;5022222;28;20188;-52
2023/06/04 11:05:34;;;;;;;1.15;1.02;;;;;;;;;;5018244;28;20275;-52
2023/06/04 11:08:01;;;;;;;1.00;0.98;;;;;;;;;;5023160;28;20190;-53
2023/06/04 11:10:32;;;;;;;1.15;1.00;;;;;;;;;;5016614;28;20199;-52
2023/06/04 11:12:58;;;;;;;1.65;1.00;;;;;;;;;;5020910;28;20180;-52
2023/06/04 11:15:24;;;;;;;1.63;0.90;;;;;;;;;;5021410;28;20253;-52
2023/06/04 11:17:51;;;;;;;1.15;0.80;;;;;;;;;;5020808;28;20359;-52
2023/06/04 11:20:18;;;;;;;2.28;1.00;;;;;;;;;;5017262;28;20192;-52
2023/06/04 11:22:50;;;;;;;1.15;1.05;;;;;;;;;;5013986;28;20264;-52
2023/06/04 11:25:17;;;;;;;1.08;0.98;;;;;;;;;;5010966;28;20196;-52
2023/06/04 11:27:42;;;;;;;1.10;1.00;;;;;;;;;;5020439;28;20224;-52
2023/06/04 11:30:09;;;;;;;0.95;0.90;;;;;;;;;;5017078;28;20238;-52
2023/06/04 11:32:36;;;;;;;1.40;1.08;;;;;;;;;;5014479;28;20572;-52
2023/06/04 11:35:06;;;;;;;0.98;0.90;;;;;;;;;;5020556;28;20180;-52
2023/06/04 11:37:32;;;;;;;0.90;0.90;;;;;;;;;;5012377;28;20267;-52
2023/06/04 11:40:00;;;;;;;5.43;0.95;;;;;;;;;;5014215;28;20278;-52
2023/06/04 11:42:26;;;;;;;0.90;0.90;;;;;;;;;;5015515;28;20512;-52
2023/06/04 11:44:56;;;;;;;1.05;0.95;;;;;;;;;;5019766;28;20188;-52
2023/06/04 11:47:22;;;;;;;0.90;0.90;;;;;;;;;;5016483;28;20825;-52
2023/06/04 11:49:48;;;;;;;1.08;0.90;;;;;;;;;;5030383;28;20185;-52
2023/06/04 11:52:14;;;;;;;1.70;1.00;;;;;;;;;;5013334;28;20176;-52
2023/06/04 11:54:40;;;;;;;1.10;0.80;;;;;;;;;;5013991;28;20208;-52
2023/06/04 11:57:06;;;;;;;2.28;1.02;;;;;;;;;;5010733;28;20211;-52
2023/06/04 11:59:32;;;;;;;1.80;1.00;;;;;;;;;;5008672;28;20456;-52
2023/06/04 12:01:58;;;;;;;2.72;1.20;;;;;;;;;;5011971;28;20542;-52
2023/06/04 12:04:30;;;;;;;2.67;1.08;;;;;;;;;;5017421;28;20268;-52
2023/06/04 12:06:57;;;;;;;2.20;1.25;;;;;;;;;;5015106;28;20216;-52
2023/06/04 12:09:24;;;;;;;1.00;0.90;;;;;;;;;;5010237;28;20188;-52
2023/06/04 12:11:50;;;;;;;1.25;0.90;;;;;;;;;;5016602;28;20176;-52
2023/06/04 12:14:19;;;;;;;1.63;0.90;;;;;;;;;;5015697;28;20187;-52
2023/06/04 12:17:15;;;;;;;1.60;0.88;;;;;;;;;;5016951;28;20188;-52
2023/06/04 12:19:50;;;;;;;1.20;1.10;;;;;;;;;;5015712;28;20267;-52
2023/06/04 12:22:16;;;;;;;1.33;0.93;;;;;;;;;;5018436;28;20552;-52
2023/06/04 12:24:49;;;;;;;1.65;1.10;;;;;;;;;;5015296;28;20479;-52
2023/06/04 12:27:15;;;;;;;0.88;0.80;;;;;;;;;;5013847;28;20234;-52
2023/06/04 12:29:41;;;;;;;1.02;1.00;;;;;;;;;;5008159;28;20184;-52
2023/06/04 12:32:11;;;;;;;1.42;1.10;;;;;;;;;;5011031;28;20177;-52
2023/06/04 12:34:37;;;;;;;1.45;1.20;;;;;;;;;;5012361;28;20172;-52
2023/06/04 12:37:03;;;;;;;0.82;0.82;;;;;;;;;;5016023;28;20203;-52
2023/06/04 12:39:29;;;;;;;1.15;0.90;;;;;;;;;;5012137;28;20188;-52
2023/06/04 12:41:56;;;;;;;1.90;0.82;;;;;;;;;;5013320;28;20215;-52
2023/06/04 12:44:21;;;;;;;1.05;0.95;;;;;;;;;;5012335;28;20193;-52
2023/06/04 12:46:47;;;;;;;1.00;0.90;;;;;;;;;;5022463;28;20237;-52
2023/06/04 12:49:13;;;;;;;0.90;0.90;;;;;;;;;;5014377;28;20236;-52
2023/06/04 12:51:39;;;;;;;1.65;0.95;;;;;;;;;;5004995;28;20200;-53
2023/06/04 12:54:06;;;;;;;1.30;1.13;;;;;;;;;;5015126;28;20181;-53
2023/06/04 12:56:32;;;;;;;1.35;0.90;;;;;;;;;;5009817;28;20203;-52
2023/06/04 12:58:57;;;;;;;1.83;0.95;;;;;;;;;;5015313;28;20678;-52
2023/06/04 13:01:23;;;;;;;4.40;1.15;;;;;;;;;;5029279;28;20177;-52
2023/06/04 13:03:49;;;;;;;1.20;0.95;;;;;;;;;;5016860;28;20192;-52
2023/06/04 13:06:15;;;;;;;0.90;0.90;;;;;;;;;;5013007;28;20185;-52
2023/06/04 13:08:41;;;;;;;2.90;1.15;;;;;;;;;;5014167;28;20443;-52
2023/06/04 13:11:07;;;;;;;3.55;1.33;;;;;;;;;;5006849;28;20194;-52
2023/06/04 13:13:33;;;;;;;6.68;1.50;;;;;;;;;;5012650;28;20287;-52
2023/06/04 13:15:59;;;;;;;7.20;1.67;;;;;;;;;;5008514;28;20264;-52
2023/06/04 13:18:27;;;;;;;2.05;1.30;;;;;;;;;;5011575;28;20259;-52
2023/06/04 13:20:53;;;;;;;3.13;1.60;;;;;;;;;;5011567;28;20188;-53
2023/06/04 13:23:18;;;;;;;2.85;1.40;;;;;;;;;;5009029;28;20268;-52
2023/06/04 13:25:44;;;;;;;2.40;1.20;;;;;;;;;;5011681;28;20185;-52
2023/06/04 13:28:10;;;;;;;3.25;1.30;;;;;;;;;;5014953;28;20260;-52
2023/06/04 13:30:36;;;;;;;1.58;1.30;;;;;;;;;;5014464;28;20590;-53
2023/06/04 13:33:02;;;;;;;3.13;1.25;;;;;;;;;;5013882;28;20268;-52
2023/06/04 13:35:29;;;;;;;4.13;1.20;;;;;;;;;;5007151;28;20833;-55
2023/06/04 13:37:55;;;;;;;2.30;1.20;;;;;;;;;;5014958;28;20630;-52
2023/06/04 13:40:20;;;;;;;1.60;0.93;;;;;;;;;;5015622;28;20188;-53
2023/06/04 13:42:46;;;;;;;2.15;1.38;;;;;;;;;;5019088;28;20184;-52
2023/06/04 13:45:13;;;;;;;2.33;1.15;;;;;;;;;;5015434;28;20172;-52
2023/06/04 13:47:39;;;;;;;2.10;1.10;;;;;;;;;;5015319;28;20548;-52
2023/06/04 13:50:05;;;;;;;2.60;0.95;;;;;;;;;;5014662;28;20246;-52
2023/06/04 13:52:31;;;;;;;1.33;0.98;;;;;;;;;;5014389;28;20252;-52
2023/06/04 13:55:00;;;;;;;1.80;1.20;;;;;;;;;;5014807;28;20267;-52
2023/06/04 13:57:26;;;;;;;1.48;1.10;;;;;;;;;;5014689;28;20201;-52
2023/06/04 13:59:52;;;;;;;2.60;1.08;;;;;;;;;;5022767;28;20184;-52
2023/06/04 14:02:18;;;;;;;2.50;1.15;;;;;;;;;;5007920;28;20191;-52
2023/06/04 14:04:44;;;;;;;2.65;1.45;;;;;;;;;;5011559;28;20259;-52
2023/06/04 14:07:10;;;;;;;1.98;1.30;;;;;;;;;;5011603;28;20576;-53
2023/06/04 14:09:35;;;;;;;1.52;1.10;;;;;;;;;;5010124;28;20180;-52
2023/06/04 14:12:05;;;;;;;1.30;1.20;;;;;;;;;;5011774;28;20180;-52
2023/06/04 14:14:36;;;;;;;2.83;1.00;;;;;;;;;;5005043;28;20188;-52
2023/06/04 14:17:02;;;;;;;1.45;1.20;;;;;;;;;;5011810;28;20173;-52
2023/06/04 14:19:28;;;;;;;1.00;0.90;;;;;;;;;;5012491;28;20262;-52
2023/06/04 14:21:54;;;;;;;3.58;1.20;;;;;;;;;;5013040;28;20185;-53
2023/06/04 14:24:20;;;;;;;1.27;1.13;;;;;;;;;;5015036;28;20188;-52
2023/06/04 14:26:46;;;;;;;1.77;1.10;;;;;;;;;;5013573;28;20212;-53
2023/06/04 14:29:13;;;;;;;4.22;1.23;;;;;;;;;;5005427;28;20574;-53
2023/06/04 14:31:39;;;;;;;1.30;1.10;;;;;;;;;;5013413;28;20188;-53
2023/06/04 14:34:06;;;;;;;1.80;1.15;;;;;;;;;;5008219;28;20268;-53
2023/06/04 14:36:32;;;;;;;1.42;1.20;;;;;;;;;;5012722;28;20188;-52
2023/06/04 14:38:58;;;;;;;1.10;1.00;;;;;;;;;;5014287;28;20266;-53
2023/06/04 14:41:24;;;;;;;1.25;1.00;;;;;;;;;;5007335;28;20647;-52